TimeEST,TemperatureF,Dew PointF,Humidity,Sea Level PressureIn,VisibilityMPH,Wind Direction,Wind SpeedMPH,Gust SpeedMPH,PrecipitationIn,Events,Conditions,WindDirDegrees,DateUTC
12:53 AM,42.1,25.0,51,29.94,10.0,SW,18.4,29.9,N/A,,Clear,220,2013-01-19 05:53:00
1:53 AM,42.1,26.1,53,29.93,10.0,SW,24.2,36.8,N/A,,Clear,220,2013-01-19 06:53:00
2:53 AM,42.1,28.0,58,29.95,10.0,SW,26.5,34.5,N/A,,Clear,230,2013-01-19 07:53:00
3:53 AM,39.9,28.0,63,29.94,10.0,SW,21.9,31.1,N/A,,Clear,230,2013-01-19 08:53:00
4:53 AM,39.9,28.0,63,29.93,10.0,SW,17.3,29.9,N/A,,Clear,220,2013-01-19 09:53:00
5:53 AM,39.9,28.0,63,29.92,10.0,SW,19.6,31.1,N/A,,Clear,220,2013-01-19 10:53:00
6:53 AM,41.0,28.0,60,29.92,10.0,SW,16.1,29.9,N/A,,Partly Cloudy,220,2013-01-19 11:53:00
7:53 AM,41.0,28.0,60,29.93,10.0,SSW,19.6,27.6,N/A,,Overcast,210,2013-01-19 12:53:00
8:53 AM,41.0,28.0,60,29.92,10.0,SSW,17.3,23.0,N/A,,Overcast,210,2013-01-19 13:53:00
9:53 AM,41.0,28.0,60,29.92,10.0,SSW,12.7,-,N/A,,Scattered Clouds,210,2013-01-19 14:53:00
10:53 AM,41.0,28.9,62,29.91,10.0,South,8.1,17.3,N/A,,Clear,180,2013-01-19 15:53:00
11:53 AM,43.0,30.0,60,29.87,10.0,South,12.7,-,N/A,,Mostly Cloudy,180,2013-01-19 16:53:00
12:53 PM,46.0,30.0,54,29.82,10.0,SW,17.3,21.9,N/A,,Clear,220,2013-01-19 17:53:00
1:53 PM,46.9,30.9,54,29.77,10.0,SSW,15.0,26.5,N/A,,Clear,210,2013-01-19 18:53:00
2:53 PM,46.0,30.9,56,29.78,10.0,SW,13.8,23.0,N/A,,Mostly Cloudy,230,2013-01-19 19:53:00
3:53 PM,46.0,32.0,58,29.75,10.0,SSW,18.4,23.0,N/A,,Overcast,200,2013-01-19 20:53:00
4:53 PM,46.9,33.1,59,29.73,10.0,SW,17.3,25.3,N/A,,Overcast,220,2013-01-19 21:53:00
5:53 PM,46.0,33.1,61,29.73,10.0,SW,16.1,29.9,N/A,,Overcast,220,2013-01-19 22:53:00
6:53 PM,46.0,34.0,63,29.74,10.0,WSW,19.6,27.6,N/A,,Partly Cloudy,240,2013-01-19 23:53:00
7:53 PM,44.1,35.1,71,29.72,10.0,SW,17.3,29.9,N/A,,Partly Cloudy,230,2013-01-20 00:53:00
8:53 PM,44.1,36.0,73,29.71,10.0,WSW,21.9,34.5,N/A,,Overcast,240,2013-01-20 01:53:00
9:53 PM,43.0,35.1,74,29.72,10.0,WSW,19.6,31.1,N/A,,Overcast,250,2013-01-20 02:53:00
10:53 PM,43.0,30.0,60,29.74,10.0,West,29.9,41.4,N/A,,Overcast,270,2013-01-20 03:53:00